createdAt,value
2018-09-09T00:00:00.703Z,17.60
2018-09-09T00:02:28.794Z,17.60
2018-09-09T00:04:56.969Z,17.60
2018-09-09T00:07:25.084Z,17.60
2018-09-09T00:09:53.155Z,17.60
2018-09-09T00:12:21.276Z,17.60
2018-09-09T00:14:49.807Z,17.50
2018-09-09T00:17:17.887Z,17.50
2018-09-09T00:19:45.961Z,17.50
2018-09-09T00:22:14.095Z,17.50
2018-09-09T00:24:42.201Z,17.40
2018-09-09T00:27:10.279Z,17.40
2018-09-09T00:29:38.356Z,17.30
2018-09-09T00:32:06.450Z,17.20
2018-09-09T00:34:34.507Z,17.30
2018-09-09T00:37:02.587Z,17.30
2018-09-09T00:39:30.736Z,17.40
2018-09-09T00:41:58.832Z,17.40
2018-09-09T00:44:26.958Z,17.40
2018-09-09T00:46:55.022Z,17.40
2018-09-09T00:49:28.661Z,17.40
2018-09-09T00:52:02.151Z,17.50
2018-09-09T00:54:30.234Z,17.40
2018-09-09T00:56:58.336Z,17.50
2018-09-09T00:59:26.417Z,17.40
2018-09-09T01:01:54.479Z,17.40
2018-09-09T01:04:22.570Z,17.40
2018-09-09T01:06:50.631Z,17.40
2018-09-09T01:09:18.735Z,17.40
2018-09-09T01:11:46.826Z,17.40
2018-09-09T01:14:14.898Z,17.40
2018-09-09T01:16:43.012Z,17.40
2018-09-09T01:19:11.100Z,17.40
2018-09-09T01:21:39.203Z,17.40
2018-09-09T01:24:07.267Z,17.40
2018-09-09T01:26:35.350Z,17.40
2018-09-09T01:29:03.418Z,17.40
2018-09-09T01:31:31.512Z,17.40
2018-09-09T01:33:59.630Z,17.40
2018-09-09T01:36:27.694Z,17.40
2018-09-09T01:38:55.762Z,17.50
2018-09-09T01:41:23.854Z,17.50
2018-09-09T01:43:51.936Z,17.50
2018-09-09T01:46:20.038Z,17.50
2018-09-09T01:48:48.147Z,17.50
2018-09-09T01:51:16.243Z,17.50
2018-09-09T01:53:44.331Z,17.50
2018-09-09T01:56:12.470Z,17.50
2018-09-09T01:58:40.618Z,17.50
2018-09-09T02:01:08.791Z,17.60
2018-09-09T02:03:36.922Z,17.50
2018-09-09T02:06:04.992Z,17.50
2018-09-09T02:08:33.091Z,17.50
2018-09-09T02:11:01.558Z,17.50
2018-09-09T02:13:30.918Z,17.30
2018-09-09T02:15:59.102Z,17.30
2018-09-09T02:18:27.403Z,17.40
2018-09-09T02:20:55.474Z,17.40
2018-09-09T02:23:23.874Z,17.50
2018-09-09T02:25:52.075Z,17.50
2018-09-09T02:28:20.102Z,17.60
2018-09-09T02:30:48.188Z,17.60
2018-09-09T02:33:16.259Z,17.60
2018-09-09T02:35:44.817Z,17.60
2018-09-09T02:38:12.884Z,17.60
2018-09-09T02:40:41.155Z,17.60
2018-09-09T02:43:09.215Z,17.60
2018-09-09T02:45:37.309Z,17.60
2018-09-09T02:48:05.407Z,17.60
2018-09-09T02:50:33.483Z,17.60
2018-09-09T02:53:01.554Z,17.60
2018-09-09T02:55:29.703Z,17.60
2018-09-09T02:57:57.782Z,17.60
2018-09-09T03:00:26.242Z,17.60
2018-09-09T03:02:54.308Z,17.60
2018-09-09T03:05:22.425Z,17.60
2018-09-09T03:07:50.584Z,17.60
2018-09-09T03:10:18.656Z,17.60
2018-09-09T03:12:46.747Z,17.60
2018-09-09T03:15:14.838Z,17.60
2018-09-09T03:17:42.971Z,17.60
2018-09-09T03:20:11.054Z,17.60
2018-09-09T03:22:39.137Z,17.60
2018-09-09T03:25:07.212Z,17.60
2018-09-09T03:27:35.283Z,17.60
2018-09-09T03:30:03.351Z,17.50
2018-09-09T03:32:31.530Z,17.50
2018-09-09T03:34:59.607Z,17.60
2018-09-09T03:37:27.723Z,17.60
2018-09-09T03:39:55.808Z,17.70
2018-09-09T03:42:23.880Z,17.70
2018-09-09T03:44:51.990Z,17.70
2018-09-09T03:47:20.093Z,17.70
2018-09-09T03:49:48.188Z,17.70
2018-09-09T03:52:16.263Z,17.70
2018-09-09T03:54:44.372Z,17.70
2018-09-09T03:57:12.470Z,17.70
2018-09-09T03:59:40.550Z,17.70
2018-09-09T04:02:08.644Z,17.70
2018-09-09T04:04:36.791Z,17.70
2018-09-09T04:07:05.294Z,17.70
2018-09-09T04:09:33.381Z,17.70
2018-09-09T04:12:01.474Z,17.70
2018-09-09T04:14:29.564Z,17.70
2018-09-09T04:16:57.639Z,17.70
2018-09-09T04:19:25.780Z,17.70
2018-09-09T04:21:53.906Z,17.70
2018-09-09T04:24:23.282Z,17.70
2018-09-09T04:26:51.360Z,17.70
2018-09-09T04:29:19.438Z,17.70
2018-09-09T04:31:47.518Z,17.70
2018-09-09T04:34:15.610Z,17.70
2018-09-09T04:36:43.800Z,17.70
2018-09-09T04:39:13.650Z,17.70
2018-09-09T04:41:41.927Z,17.70
2018-09-09T04:44:11.241Z,17.70
2018-09-09T04:46:39.328Z,17.70
2018-09-09T04:49:08.083Z,17.70
2018-09-09T04:51:36.188Z,17.70
2018-09-09T04:54:04.420Z,17.70
2018-09-09T04:56:32.547Z,17.70
2018-09-09T04:59:00.671Z,17.70
2018-09-09T05:01:28.821Z,17.70
2018-09-09T05:03:57.071Z,17.70
2018-09-09T05:06:25.153Z,17.70
2018-09-09T05:08:53.218Z,17.70
2018-09-09T05:11:21.310Z,17.70
2018-09-09T05:13:49.401Z,17.70
2018-09-09T05:16:17.510Z,17.70
2018-09-09T05:18:45.629Z,17.70
2018-09-09T05:21:13.682Z,17.70
2018-09-09T05:23:41.807Z,17.70
2018-09-09T05:26:09.886Z,17.70
2018-09-09T05:28:37.979Z,17.70
2018-09-09T05:31:06.308Z,17.70
2018-09-09T05:33:34.385Z,17.80
2018-09-09T05:36:02.465Z,17.80
2018-09-09T05:38:30.617Z,17.80
2018-09-09T05:40:58.752Z,17.80
2018-09-09T05:43:26.843Z,17.80
2018-09-09T05:45:54.932Z,17.80
2018-09-09T05:48:23.035Z,17.80
2018-09-09T05:50:51.141Z,17.80
2018-09-09T05:53:19.228Z,17.80
2018-09-09T05:55:47.323Z,17.80
2018-09-09T05:58:15.443Z,17.90
2018-09-09T06:00:43.534Z,17.90
2018-09-09T06:03:11.603Z,17.90
2018-09-09T06:05:39.714Z,17.90
2018-09-09T06:08:07.833Z,17.90
2018-09-09T06:10:35.948Z,17.90
2018-09-09T06:13:04.027Z,17.90
2018-09-09T06:15:32.158Z,17.90
2018-09-09T06:18:00.300Z,18.00
2018-09-09T06:20:28.401Z,18.00
2018-09-09T06:22:56.469Z,18.00
2018-09-09T06:25:24.699Z,18.00
2018-09-09T06:27:52.794Z,18.00
2018-09-09T06:30:20.898Z,18.10
2018-09-09T06:32:48.979Z,18.10
2018-09-09T06:35:17.078Z,18.10
2018-09-09T06:37:45.157Z,18.20
2018-09-09T06:40:13.332Z,18.20
2018-09-09T06:42:41.519Z,18.20
2018-09-09T06:45:09.614Z,18.30
2018-09-09T06:47:37.738Z,18.30
2018-09-09T06:50:05.843Z,18.30
2018-09-09T06:52:33.930Z,18.40
2018-09-09T06:55:02.032Z,18.40
2018-09-09T06:57:30.087Z,18.50
2018-09-09T06:59:58.177Z,18.50
2018-09-09T07:02:26.405Z,18.50
2018-09-09T07:04:54.401Z,18.60
2018-09-09T07:07:22.475Z,18.60
2018-09-09T07:09:50.583Z,18.70
2018-09-09T07:12:18.737Z,18.70
2018-09-09T07:14:46.876Z,18.70
2018-09-09T07:17:14.954Z,18.80
2018-09-09T07:19:43.039Z,18.80
2018-09-09T07:22:11.114Z,18.80
2018-09-09T07:24:39.398Z,18.90
2018-09-09T07:27:07.518Z,18.90
2018-09-09T07:29:35.626Z,19.00
2018-09-09T07:32:03.762Z,19.00
2018-09-09T07:34:31.881Z,19.00
2018-09-09T07:36:59.959Z,19.10
2018-09-09T07:39:28.062Z,19.10
2018-09-09T07:41:56.152Z,19.20
2018-09-09T07:44:24.261Z,19.30
2018-09-09T07:46:52.328Z,19.30
2018-09-09T07:49:20.430Z,19.30
2018-09-09T07:51:48.630Z,19.40
2018-09-09T07:54:16.729Z,19.50
2018-09-09T07:56:44.851Z,19.60
2018-09-09T07:59:12.948Z,19.70
2018-09-09T08:01:41.102Z,19.70
2018-09-09T08:04:09.310Z,19.80
2018-09-09T08:06:37.411Z,19.80
2018-09-09T08:09:07.354Z,19.90
2018-09-09T08:11:38.554Z,19.90
2018-09-09T08:14:08.316Z,19.90
2018-09-09T08:16:36.393Z,20.00
2018-09-09T08:19:04.780Z,20.00
2018-09-09T08:21:33.638Z,20.10
2018-09-09T08:24:01.719Z,20.10
2018-09-09T08:26:29.822Z,20.20
2018-09-09T08:28:57.919Z,20.20
2018-09-09T08:31:25.993Z,20.30
2018-09-09T08:33:54.181Z,20.40
2018-09-09T08:36:22.319Z,20.40
2018-09-09T08:38:50.403Z,20.50
2018-09-09T08:41:18.658Z,20.60
2018-09-09T08:43:46.727Z,20.60
2018-09-09T08:46:14.813Z,20.70
2018-09-09T08:48:42.975Z,20.80
2018-09-09T08:51:11.073Z,20.80
2018-09-09T08:53:39.200Z,20.70
2018-09-09T08:56:07.275Z,20.80
2018-09-09T08:58:35.401Z,20.90
2018-09-09T09:01:03.485Z,20.90
2018-09-09T09:03:31.687Z,20.90
2018-09-09T09:05:59.791Z,21.00
2018-09-09T09:08:27.893Z,21.00
2018-09-09T09:10:56.011Z,21.10
2018-09-09T09:13:24.162Z,21.10
2018-09-09T09:15:52.259Z,21.10
2018-09-09T09:18:20.384Z,21.20
2018-09-09T09:20:48.539Z,21.20
2018-09-09T09:23:16.642Z,21.30
2018-09-09T09:25:50.746Z,21.30
2018-09-09T09:28:19.055Z,21.40
2018-09-09T09:30:47.206Z,21.40
2018-09-09T09:33:15.287Z,21.50
2018-09-09T09:35:52.776Z,21.60
2018-09-09T09:38:21.882Z,21.70
2018-09-09T09:40:50.498Z,21.80
2018-09-09T09:43:18.690Z,21.80
2018-09-09T09:45:46.780Z,21.90
2018-09-09T09:48:14.908Z,22.00
2018-09-09T09:50:43.048Z,22.10
2018-09-09T09:53:11.388Z,22.00
2018-09-09T09:55:39.693Z,22.20
2018-09-09T09:58:07.890Z,22.20
2018-09-09T10:00:41.539Z,22.30
2018-09-09T10:03:09.694Z,22.50
2018-09-09T10:05:37.791Z,22.60
2018-09-09T10:08:06.209Z,22.70
2018-09-09T10:10:34.289Z,22.80
2018-09-09T10:13:02.390Z,22.90
2018-09-09T10:15:30.491Z,23.00
2018-09-09T10:17:58.608Z,23.00
2018-09-09T10:20:26.891Z,23.10
2018-09-09T10:22:55.033Z,23.10
2018-09-09T10:25:23.418Z,23.10
2018-09-09T10:27:51.615Z,23.10
2018-09-09T10:30:19.787Z,23.20
2018-09-09T10:32:47.933Z,23.20
2018-09-09T10:35:16.038Z,23.20
2018-09-09T10:37:44.134Z,23.30
2018-09-09T10:40:12.235Z,23.40
2018-09-09T10:42:40.352Z,23.40
2018-09-09T10:45:08.427Z,23.50
2018-09-09T10:47:36.516Z,23.50
2018-09-09T10:50:04.676Z,23.60
2018-09-09T10:52:32.777Z,23.60
2018-09-09T10:55:00.889Z,23.60
2018-09-09T10:57:29.040Z,23.70
2018-09-09T10:59:57.154Z,23.70
2018-09-09T11:02:25.307Z,23.70
2018-09-09T11:04:53.516Z,23.70
2018-09-09T11:07:21.610Z,23.70
2018-09-09T11:09:49.701Z,23.80
2018-09-09T11:12:17.807Z,23.80
2018-09-09T11:14:45.883Z,23.80
2018-09-09T11:17:13.974Z,23.80
2018-09-09T11:19:42.058Z,23.90
2018-09-09T11:22:10.193Z,23.90
2018-09-09T11:24:38.363Z,24.00
2018-09-09T11:27:06.411Z,24.00
2018-09-09T11:29:34.511Z,24.10
2018-09-09T11:32:02.595Z,24.10
2018-09-09T11:34:30.755Z,24.20
2018-09-09T11:36:58.839Z,24.30
2018-09-09T11:39:26.968Z,24.30
2018-09-09T11:41:55.071Z,24.30
2018-09-09T11:44:23.209Z,24.40
2018-09-09T11:46:51.659Z,24.50
2018-09-09T11:49:19.747Z,24.50
2018-09-09T11:51:47.851Z,24.50
2018-09-09T11:54:15.992Z,24.60
2018-09-09T11:56:44.112Z,24.70
2018-09-09T11:59:12.263Z,24.70
2018-09-09T12:01:40.398Z,24.80
2018-09-09T12:04:08.491Z,24.90
2018-09-09T12:06:36.668Z,25.10
2018-09-09T12:09:07.541Z,25.10
2018-09-09T12:11:35.716Z,25.20
2018-09-09T12:14:03.839Z,25.30
2018-09-09T12:16:32.033Z,25.30
2018-09-09T12:19:00.152Z,25.30
2018-09-09T12:21:30.420Z,25.30
2018-09-09T12:23:58.518Z,25.30
2018-09-09T12:26:26.705Z,25.30
2018-09-09T12:28:54.900Z,25.30
2018-09-09T12:31:23.126Z,25.30
2018-09-09T12:33:51.302Z,25.40
2018-09-09T12:36:20.093Z,25.40
2018-09-09T12:38:48.227Z,25.50
2018-09-09T12:41:16.310Z,25.50
2018-09-09T12:43:49.907Z,25.60
2018-09-09T12:46:23.463Z,25.60
2018-09-09T12:48:57.128Z,25.70
2018-09-09T12:51:25.341Z,25.70
2018-09-09T12:53:53.583Z,25.90
2018-09-09T12:56:21.689Z,26.00
2018-09-09T12:58:49.863Z,26.10
2018-09-09T13:01:18.224Z,26.20
2018-09-09T13:03:46.371Z,26.20
2018-09-09T13:06:14.447Z,26.30
2018-09-09T13:08:42.521Z,26.40
2018-09-09T13:11:10.599Z,26.40
2018-09-09T13:13:39.536Z,26.50
2018-09-09T13:16:07.617Z,26.50
2018-09-09T13:18:35.734Z,26.50
2018-09-09T13:21:03.836Z,26.60
2018-09-09T13:23:31.974Z,26.60
2018-09-09T13:26:00.104Z,26.70
2018-09-09T13:28:28.195Z,26.70
2018-09-09T13:30:56.316Z,26.80
2018-09-09T13:33:24.441Z,26.80
2018-09-09T13:35:52.515Z,26.90
2018-09-09T13:38:20.698Z,26.90
2018-09-09T13:40:48.805Z,27.00
2018-09-09T13:43:16.910Z,27.00
2018-09-09T13:45:45.004Z,27.10
2018-09-09T13:48:13.140Z,27.10
2018-09-09T13:50:41.238Z,27.20
2018-09-09T13:53:09.354Z,27.20
2018-09-09T13:55:37.496Z,27.30
2018-09-09T13:58:05.648Z,27.30
2018-09-09T14:00:33.803Z,27.40
2018-09-09T14:03:01.872Z,27.40
2018-09-09T14:05:29.994Z,27.50
2018-09-09T14:07:58.164Z,27.60
2018-09-09T14:10:26.269Z,27.70
2018-09-09T14:12:54.345Z,27.60
2018-09-09T14:15:22.429Z,27.70
2018-09-09T14:17:50.543Z,27.80
2018-09-09T14:20:18.615Z,27.80
2018-09-09T14:22:46.682Z,27.90
2018-09-09T14:25:14.818Z,27.90
2018-09-09T14:27:42.976Z,27.90
2018-09-09T14:30:11.054Z,27.90
2018-09-09T14:32:39.135Z,27.90
2018-09-09T14:35:07.272Z,27.90
2018-09-09T14:37:35.387Z,27.80
2018-09-09T14:40:03.491Z,27.80
2018-09-09T14:42:31.583Z,27.70
2018-09-09T14:44:59.681Z,27.70
2018-09-09T14:47:27.775Z,27.70
2018-09-09T14:49:55.887Z,27.60
2018-09-09T14:52:23.994Z,27.60
2018-09-09T14:54:52.112Z,27.50
2018-09-09T14:57:20.231Z,27.50
2018-09-09T14:59:48.327Z,27.40
2018-09-09T15:02:16.458Z,27.40
2018-09-09T15:04:44.551Z,27.30
2018-09-09T15:07:12.776Z,27.20
2018-09-09T15:09:40.850Z,27.20
2018-09-09T15:12:08.909Z,27.20
2018-09-09T15:14:36.970Z,27.20
2018-09-09T15:17:05.442Z,27.20
2018-09-09T15:19:33.494Z,27.20
2018-09-09T15:22:01.575Z,27.30
2018-09-09T15:24:29.716Z,27.30
2018-09-09T15:26:57.815Z,27.30
2018-09-09T15:29:25.916Z,27.30
2018-09-09T15:31:54.073Z,27.30
2018-09-09T15:34:22.313Z,27.20
2018-09-09T15:36:50.389Z,27.20
2018-09-09T15:39:18.467Z,27.20
2018-09-09T15:41:46.563Z,27.20
2018-09-09T15:44:14.655Z,27.20
2018-09-09T15:46:42.741Z,27.20
2018-09-09T15:49:10.843Z,27.20
2018-09-09T15:51:38.936Z,27.30
2018-09-09T15:54:07.027Z,27.40
2018-09-09T15:56:35.268Z,27.50
2018-09-09T15:59:03.343Z,27.70
2018-09-09T16:01:31.458Z,27.80
2018-09-09T16:03:59.571Z,28.10
2018-09-09T16:06:27.678Z,28.30
2018-09-09T16:08:55.794Z,28.50
2018-09-09T16:11:23.992Z,28.70
2018-09-09T16:13:52.399Z,28.80
2018-09-09T16:17:49.986Z,29.00
2018-09-09T16:20:18.087Z,29.10
2018-09-09T16:22:46.199Z,29.10
2018-09-09T16:25:14.323Z,29.10
2018-09-09T16:27:42.464Z,28.90
2018-09-09T16:30:10.975Z,28.80
2018-09-09T16:32:39.077Z,28.70
2018-09-09T16:35:07.217Z,28.50
2018-09-09T16:37:35.564Z,28.30
2018-09-09T16:40:03.647Z,28.20
2018-09-09T16:42:32.104Z,28.10
2018-09-09T16:45:00.310Z,28.00
2018-09-09T16:47:28.485Z,27.90
2018-09-09T16:49:56.622Z,27.80
2018-09-09T16:52:24.739Z,27.80
2018-09-09T16:54:52.823Z,27.70
2018-09-09T16:57:20.887Z,27.60
2018-09-09T16:59:48.963Z,27.60
2018-09-09T17:02:17.050Z,27.50
2018-09-09T17:04:45.134Z,27.40
2018-09-09T17:07:13.222Z,27.30
2018-09-09T17:09:41.370Z,27.30
2018-09-09T17:12:09.459Z,27.20
2018-09-09T17:14:37.561Z,27.10
2018-09-09T17:17:05.632Z,27.00
2018-09-09T17:19:33.796Z,27.00
2018-09-09T17:22:01.867Z,26.90
2018-09-09T17:24:30.003Z,26.80
2018-09-09T17:26:58.171Z,26.70
2018-09-09T17:29:26.354Z,26.70
2018-09-09T17:31:54.490Z,26.70
2018-09-09T17:34:22.564Z,26.60
2018-09-09T17:36:50.880Z,26.60
2018-09-09T17:39:19.031Z,26.50
2018-09-09T17:41:47.103Z,26.40
2018-09-09T17:44:15.175Z,26.40
2018-09-09T17:46:43.267Z,26.30
2018-09-09T17:49:11.427Z,26.20
2018-09-09T17:51:39.693Z,26.10
2018-09-09T17:54:07.859Z,26.00
2018-09-09T17:56:36.559Z,25.90
2018-09-09T17:59:04.751Z,25.90
2018-09-09T18:01:32.927Z,25.80
2018-09-09T18:04:01.012Z,25.70
2018-09-09T18:06:29.164Z,25.60
2018-09-09T18:08:57.246Z,25.50
2018-09-09T18:11:25.336Z,25.40
2018-09-09T18:13:53.553Z,25.30
2018-09-09T18:16:21.838Z,25.20
2018-09-09T18:18:49.938Z,25.10
2018-09-09T18:21:18.075Z,25.00
2018-09-09T18:23:46.157Z,24.90
2018-09-09T18:26:14.312Z,24.90
2018-09-09T18:28:42.380Z,24.80
2018-09-09T18:31:10.554Z,24.70
2018-09-09T18:33:38.639Z,24.60
2018-09-09T18:36:06.714Z,24.50
2018-09-09T18:38:34.875Z,24.50
2018-09-09T18:41:02.895Z,24.40
2018-09-09T18:43:30.963Z,24.30
2018-09-09T18:45:59.089Z,24.00
2018-09-09T18:48:27.170Z,23.90
2018-09-09T18:50:55.263Z,24.00
2018-09-09T18:53:23.408Z,23.90
2018-09-09T18:55:51.580Z,23.90
2018-09-09T18:58:19.698Z,23.90
2018-09-09T19:00:47.804Z,23.80
2018-09-09T19:03:15.964Z,23.80
2018-09-09T19:05:44.123Z,23.80
2018-09-09T19:08:12.247Z,23.70
2018-09-09T19:10:40.363Z,23.60
2018-09-09T19:13:08.735Z,23.60
2018-09-09T19:15:36.877Z,23.50
2018-09-09T19:18:04.979Z,23.40
2018-09-09T19:20:33.131Z,23.20
2018-09-09T19:23:01.231Z,23.20
2018-09-09T19:25:29.520Z,23.20
2018-09-09T19:27:57.623Z,23.20
2018-09-09T19:30:25.709Z,23.20
2018-09-09T19:32:53.787Z,23.20
2018-09-09T19:35:21.863Z,23.20
2018-09-09T19:37:49.945Z,23.20
2018-09-09T19:40:18.140Z,23.20
2018-09-09T19:42:46.263Z,23.20
2018-09-09T19:45:14.364Z,23.20
2018-09-09T19:47:42.437Z,23.10
2018-09-09T19:50:10.590Z,23.10
2018-09-09T19:52:38.898Z,23.10
2018-09-09T19:55:07.010Z,23.10
2018-09-09T19:57:35.079Z,23.10
2018-09-09T20:00:03.207Z,23.20
2018-09-09T20:02:31.333Z,23.20
2018-09-09T20:04:59.451Z,23.20
2018-09-09T20:07:27.532Z,23.20
2018-09-09T20:09:55.739Z,23.20
2018-09-09T20:12:23.851Z,23.20
2018-09-09T20:14:51.962Z,23.20
2018-09-09T20:17:20.097Z,23.20
2018-09-09T20:19:48.188Z,23.20
2018-09-09T20:22:16.279Z,23.20
2018-09-09T20:24:44.354Z,23.20
2018-09-09T20:27:12.460Z,23.20
2018-09-09T20:29:40.572Z,23.20
2018-09-09T20:32:08.700Z,23.20
2018-09-09T20:34:36.806Z,23.20
2018-09-09T20:37:04.899Z,23.20
2018-09-09T20:39:32.991Z,23.20
2018-09-09T20:42:01.071Z,23.20
2018-09-09T20:44:29.211Z,23.20
2018-09-09T20:46:57.363Z,23.10
2018-09-09T20:49:25.758Z,23.20
2018-09-09T20:51:54.034Z,23.10
2018-09-09T20:54:22.110Z,23.20
2018-09-09T20:56:50.191Z,23.20
2018-09-09T20:59:18.317Z,23.10
2018-09-09T21:01:46.459Z,23.00
2018-09-09T21:04:14.612Z,23.00
2018-09-09T21:06:42.741Z,23.00
2018-09-09T21:09:12.206Z,23.10
2018-09-09T21:11:40.455Z,23.10
2018-09-09T21:14:08.968Z,23.10
2018-09-09T21:16:37.063Z,23.00
2018-09-09T21:19:05.287Z,23.00
2018-09-09T21:21:34.095Z,23.00
2018-09-09T21:24:02.251Z,23.00
2018-09-09T21:26:30.380Z,22.90
2018-09-09T21:28:58.443Z,23.00
2018-09-09T21:31:26.958Z,22.90
2018-09-09T21:33:55.054Z,22.90
2018-09-09T21:36:23.146Z,22.90
2018-09-09T21:38:51.226Z,22.80
2018-09-09T21:41:19.327Z,22.80
2018-09-09T21:43:48.624Z,22.80
2018-09-09T21:46:23.623Z,22.80
2018-09-09T21:48:52.415Z,22.70
2018-09-09T21:51:20.485Z,22.70
2018-09-09T21:53:48.562Z,22.70
2018-09-09T21:56:16.700Z,22.70
2018-09-09T21:58:44.770Z,22.70
2018-09-09T22:01:18.200Z,22.60
2018-09-09T22:03:46.375Z,22.60
2018-09-09T22:06:14.467Z,22.60
2018-09-09T22:08:42.618Z,22.60
2018-09-09T22:11:10.694Z,22.50
2018-09-09T22:13:38.934Z,22.50
2018-09-09T22:16:07.007Z,22.50
2018-09-09T22:18:35.388Z,22.50
2018-09-09T22:21:03.458Z,22.40
2018-09-09T22:23:31.602Z,22.40
2018-09-09T22:25:59.879Z,22.40
2018-09-09T22:28:27.979Z,22.30
2018-09-09T22:30:56.094Z,22.30
2018-09-09T22:33:24.178Z,22.20
2018-09-09T22:35:52.283Z,22.20
2018-09-09T22:38:20.354Z,22.20
2018-09-09T22:40:48.494Z,22.20
2018-09-09T22:43:16.603Z,22.20
2018-09-09T22:45:48.707Z,22.10
2018-09-09T22:48:17.139Z,22.10
2018-09-09T22:50:45.381Z,22.10
2018-09-09T22:53:13.587Z,22.10
2018-09-09T22:55:41.725Z,22.00
2018-09-09T22:58:09.804Z,22.00
2018-09-09T23:00:38.078Z,22.00
2018-09-09T23:03:06.611Z,21.90
2018-09-09T23:05:34.740Z,22.00
2018-09-09T23:08:02.766Z,21.80
2018-09-09T23:10:30.875Z,21.70
2018-09-09T23:12:58.999Z,21.80
2018-09-09T23:15:28.047Z,21.80
2018-09-09T23:17:56.269Z,21.80
2018-09-09T23:20:24.354Z,21.80
2018-09-09T23:22:53.158Z,21.80
2018-09-09T23:25:21.746Z,21.80
2018-09-09T23:27:50.127Z,21.80
2018-09-09T23:30:18.473Z,21.80
2018-09-09T23:32:46.782Z,21.80
2018-09-09T23:35:14.899Z,21.80
2018-09-09T23:37:43.358Z,21.80
2018-09-09T23:40:11.494Z,21.80
2018-09-09T23:42:39.598Z,21.70
2018-09-09T23:45:07.698Z,21.60
2018-09-09T23:47:36.026Z,21.60
2018-09-09T23:50:04.310Z,21.50
2018-09-09T23:52:32.394Z,21.50
2018-09-09T23:55:00.494Z,21.50
2018-09-09T23:57:28.597Z,21.60
2018-09-09T23:59:56.791Z,21.60
